sensor_id;sensor_type;location;lat;lon;timestamp;temperature;humidity
21035;DHT22;10676;50.848;3.272;2023-04-24T00:00:06;10.40;99.90
21035;DHT22;10676;50.848;3.272;2023-04-24T00:02:32;10.20;99.90
21035;DHT22;10676;50.848;3.272;2023-04-24T00:04:58;10.10;99.90
21035;DHT22;10676;50.848;3.272;2023-04-24T00:07:28;10.00;99.90
21035;DHT22;10676;50.848;3.272;2023-04-24T00:09:54;9.90;99.90
21035;DHT22;10676;50.848;3.272;2023-04-24T00:12:20;9.80;99.90
21035;DHT22;10676;50.848;3.272;2023-04-24T00:14:46;9.70;99.90
21035;DHT22;10676;50.848;3.272;2023-04-24T00:17:11;9.60;99.90
21035;DHT22;10676;50.848;3.272;2023-04-24T00:19:37;9.60;99.90
21035;DHT22;10676;50.848;3.272;2023-04-24T00:22:03;9.60;99.90
21035;DHT22;10676;50.848;3.272;2023-04-24T00:24:29;9.60;99.90
21035;DHT22;10676;50.848;3.272;2023-04-24T00:26:54;9.60;99.90
21035;DHT22;10676;50.848;3.272;2023-04-24T00:29:20;9.60;99.90
21035;DHT22;10676;50.848;3.272;2023-04-24T00:31:46;9.60;99.90
21035;DHT22;10676;50.848;3.272;2023-04-24T00:34:11;9.60;99.90
21035;DHT22;10676;50.848;3.272;2023-04-24T00:36:37;9.50;99.90
21035;DHT22;10676;50.848;3.272;2023-04-24T00:39:03;9.60;99.90
21035;DHT22;10676;50.848;3.272;2023-04-24T00:41:29;9.50;99.90
21035;DHT22;10676;50.848;3.272;2023-04-24T00:43:55;9.50;99.90
21035;DHT22;10676;50.848;3.272;2023-04-24T00:46:22;9.50;99.90
21035;DHT22;10676;50.848;3.272;2023-04-24T00:48:47;9.50;99.90
21035;DHT22;10676;50.848;3.272;2023-04-24T00:51:13;9.40;99.90
21035;DHT22;10676;50.848;3.272;2023-04-24T00:53:39;9.50;99.90
21035;DHT22;10676;50.848;3.272;2023-04-24T00:56:05;9.60;99.90
21035;DHT22;10676;50.848;3.272;2023-04-24T00:58:31;9.60;99.90
21035;DHT22;10676;50.848;3.272;2023-04-24T01:00:57;9.60;99.90
21035;DHT22;10676;50.848;3.272;2023-04-24T01:03:29;9.60;99.90
21035;DHT22;10676;50.848;3.272;2023-04-24T01:05:55;9.60;99.90
21035;DHT22;10676;50.848;3.272;2023-04-24T01:08:23;9.60;99.90
21035;DHT22;10676;50.848;3.272;2023-04-24T01:10:51;9.60;99.90
21035;DHT22;10676;50.848;3.272;2023-04-24T01:13:18;9.60;99.90
21035;DHT22;10676;50.848;3.272;2023-04-24T01:15:45;9.60;99.90
21035;DHT22;10676;50.848;3.272;2023-04-24T01:18:11;9.60;99.90
21035;DHT22;10676;50.848;3.272;2023-04-24T01:20:39;9.60;99.90
21035;DHT22;10676;50.848;3.272;2023-04-24T01:23:06;9.60;99.90
21035;DHT22;10676;50.848;3.272;2023-04-24T01:25:32;9.60;99.90
21035;DHT22;10676;50.848;3.272;2023-04-24T01:27:58;9.60;99.90
21035;DHT22;10676;50.848;3.272;2023-04-24T01:30:25;9.60;99.90
21035;DHT22;10676;50.848;3.272;2023-04-24T01:32:51;9.60;99.90
21035;DHT22;10676;50.848;3.272;2023-04-24T01:35:17;9.60;99.90
21035;DHT22;10676;50.848;3.272;2023-04-24T01:37:43;9.70;99.90
21035;DHT22;10676;50.848;3.272;2023-04-24T01:40:09;9.60;99.90
21035;DHT22;10676;50.848;3.272;2023-04-24T01:42:35;9.50;99.90
21035;DHT22;10676;50.848;3.272;2023-04-24T01:45:02;9.50;99.90
21035;DHT22;10676;50.848;3.272;2023-04-24T01:47:30;9.40;99.90
21035;DHT22;10676;50.848;3.272;2023-04-24T01:49:56;9.40;99.90
21035;DHT22;10676;50.848;3.272;2023-04-24T01:52:21;9.40;99.90
21035;DHT22;10676;50.848;3.272;2023-04-24T01:54:47;9.50;99.90
21035;DHT22;10676;50.848;3.272;2023-04-24T01:57:14;9.50;99.90
21035;DHT22;10676;50.848;3.272;2023-04-24T01:59:40;9.50;99.90
21035;DHT22;10676;50.848;3.272;2023-04-24T02:02:05;9.50;99.90
21035;DHT22;10676;50.848;3.272;2023-04-24T02:04:31;9.50;99.90
21035;DHT22;10676;50.848;3.272;2023-04-24T02:06:57;9.50;99.90
21035;DHT22;10676;50.848;3.272;2023-04-24T02:09:23;9.50;99.90
21035;DHT22;10676;50.848;3.272;2023-04-24T02:11:48;9.40;99.90
21035;DHT22;10676;50.848;3.272;2023-04-24T02:14:14;9.40;99.90
21035;DHT22;10676;50.848;3.272;2023-04-24T02:16:39;9.40;99.90
21035;DHT22;10676;50.848;3.272;2023-04-24T02:19:05;9.50;99.90
21035;DHT22;10676;50.848;3.272;2023-04-24T02:21:31;9.40;99.90
21035;DHT22;10676;50.848;3.272;2023-04-24T02:23:57;9.50;99.90
21035;DHT22;10676;50.848;3.272;2023-04-24T02:26:23;9.50;99.90
21035;DHT22;10676;50.848;3.272;2023-04-24T02:28:48;9.60;99.90
21035;DHT22;10676;50.848;3.272;2023-04-24T02:31:14;9.60;99.90
21035;DHT22;10676;50.848;3.272;2023-04-24T02:33:40;9.60;99.90
21035;DHT22;10676;50.848;3.272;2023-04-24T02:36:06;9.70;99.90
21035;DHT22;10676;50.848;3.272;2023-04-24T02:38:31;9.70;99.90
21035;DHT22;10676;50.848;3.272;2023-04-24T02:40:57;9.70;99.90
21035;DHT22;10676;50.848;3.272;2023-04-24T02:43:23;9.70;99.90
21035;DHT22;10676;50.848;3.272;2023-04-24T02:45:48;9.80;99.90
21035;DHT22;10676;50.848;3.272;2023-04-24T02:48:14;9.80;99.90
21035;DHT22;10676;50.848;3.272;2023-04-24T02:50:40;9.80;99.90
21035;DHT22;10676;50.848;3.272;2023-04-24T02:53:06;9.90;99.90
21035;DHT22;10676;50.848;3.272;2023-04-24T02:55:31;9.90;99.90
21035;DHT22;10676;50.848;3.272;2023-04-24T02:57:57;10.00;99.90
21035;DHT22;10676;50.848;3.272;2023-04-24T03:00:25;10.00;99.90
21035;DHT22;10676;50.848;3.272;2023-04-24T03:02:51;10.00;99.90
21035;DHT22;10676;50.848;3.272;2023-04-24T03:05:17;10.00;99.90
21035;DHT22;10676;50.848;3.272;2023-04-24T03:07:42;9.90;99.90
21035;DHT22;10676;50.848;3.272;2023-04-24T03:10:08;9.90;99.90
21035;DHT22;10676;50.848;3.272;2023-04-24T03:12:34;9.90;99.90
21035;DHT22;10676;50.848;3.272;2023-04-24T03:15:00;9.90;99.90
21035;DHT22;10676;50.848;3.272;2023-04-24T03:17:25;9.90;99.90
21035;DHT22;10676;50.848;3.272;2023-04-24T03:19:51;9.90;99.90
21035;DHT22;10676;50.848;3.272;2023-04-24T03:22:17;9.90;99.90
21035;DHT22;10676;50.848;3.272;2023-04-24T03:24:42;9.90;99.90
21035;DHT22;10676;50.848;3.272;2023-04-24T03:27:08;9.90;99.90
21035;DHT22;10676;50.848;3.272;2023-04-24T03:29:33;9.90;99.90
21035;DHT22;10676;50.848;3.272;2023-04-24T03:31:59;9.80;99.90
21035;DHT22;10676;50.848;3.272;2023-04-24T03:34:25;9.80;99.90
21035;DHT22;10676;50.848;3.272;2023-04-24T03:36:50;9.70;99.90
21035;DHT22;10676;50.848;3.272;2023-04-24T03:39:16;9.70;99.90
21035;DHT22;10676;50.848;3.272;2023-04-24T03:41:42;9.70;99.90
21035;DHT22;10676;50.848;3.272;2023-04-24T03:44:07;9.70;99.90
21035;DHT22;10676;50.848;3.272;2023-04-24T03:46:33;9.60;99.90
21035;DHT22;10676;50.848;3.272;2023-04-24T03:48:58;9.60;99.90
21035;DHT22;10676;50.848;3.272;2023-04-24T03:51:24;9.60;99.90
21035;DHT22;10676;50.848;3.272;2023-04-24T03:53:50;9.60;99.90
21035;DHT22;10676;50.848;3.272;2023-04-24T03:56:16;9.50;99.90
21035;DHT22;10676;50.848;3.272;2023-04-24T03:58:42;9.50;99.90
21035;DHT22;10676;50.848;3.272;2023-04-24T04:01:08;9.50;99.90
21035;DHT22;10676;50.848;3.272;2023-04-24T04:03:33;9.40;99.90
21035;DHT22;10676;50.848;3.272;2023-04-24T04:05:59;9.40;99.90
21035;DHT22;10676;50.848;3.272;2023-04-24T04:08:25;9.40;99.90
21035;DHT22;10676;50.848;3.272;2023-04-24T04:10:51;9.40;99.90
21035;DHT22;10676;50.848;3.272;2023-04-24T04:13:17;9.40;99.90
21035;DHT22;10676;50.848;3.272;2023-04-24T04:15:42;9.40;99.90
21035;DHT22;10676;50.848;3.272;2023-04-24T04:18:08;9.40;99.90
21035;DHT22;10676;50.848;3.272;2023-04-24T04:20:34;9.30;99.90
21035;DHT22;10676;50.848;3.272;2023-04-24T04:23:00;9.30;99.90
21035;DHT22;10676;50.848;3.272;2023-04-24T04:25:25;9.30;99.90
21035;DHT22;10676;50.848;3.272;2023-04-24T04:27:51;9.40;99.90
21035;DHT22;10676;50.848;3.272;2023-04-24T04:30:17;9.40;99.90
21035;DHT22;10676;50.848;3.272;2023-04-24T04:32:43;9.40;99.90
21035;DHT22;10676;50.848;3.272;2023-04-24T04:35:09;9.40;99.90
21035;DHT22;10676;50.848;3.272;2023-04-24T04:37:35;9.40;99.90
21035;DHT22;10676;50.848;3.272;2023-04-24T04:40:02;9.40;99.90
21035;DHT22;10676;50.848;3.272;2023-04-24T04:42:37;9.40;99.90
21035;DHT22;10676;50.848;3.272;2023-04-24T04:45:07;9.40;99.90
21035;DHT22;10676;50.848;3.272;2023-04-24T04:47:34;9.40;99.90
21035;DHT22;10676;50.848;3.272;2023-04-24T04:50:00;9.40;99.90
21035;DHT22;10676;50.848;3.272;2023-04-24T04:52:26;9.40;99.90
21035;DHT22;10676;50.848;3.272;2023-04-24T04:54:52;9.40;99.90
21035;DHT22;10676;50.848;3.272;2023-04-24T04:57:18;9.50;99.90
21035;DHT22;10676;50.848;3.272;2023-04-24T04:59:43;9.50;99.90
21035;DHT22;10676;50.848;3.272;2023-04-24T05:02:10;9.60;99.90
21035;DHT22;10676;50.848;3.272;2023-04-24T05:04:35;9.60;99.90
21035;DHT22;10676;50.848;3.272;2023-04-24T05:07:01;9.60;99.90
21035;DHT22;10676;50.848;3.272;2023-04-24T05:09:27;9.60;99.90
21035;DHT22;10676;50.848;3.272;2023-04-24T05:11:54;9.60;99.90
21035;DHT22;10676;50.848;3.272;2023-04-24T05:14:20;9.70;99.90
21035;DHT22;10676;50.848;3.272;2023-04-24T05:16:46;9.70;99.90
21035;DHT22;10676;50.848;3.272;2023-04-24T05:19:12;9.70;99.90
21035;DHT22;10676;50.848;3.272;2023-04-24T05:21:39;9.70;99.90
21035;DHT22;10676;50.848;3.272;2023-04-24T05:24:05;9.70;99.90
21035;DHT22;10676;50.848;3.272;2023-04-24T05:26:31;9.70;99.90
21035;DHT22;10676;50.848;3.272;2023-04-24T05:28:57;9.70;99.90
21035;DHT22;10676;50.848;3.272;2023-04-24T05:31:23;9.70;99.90
21035;DHT22;10676;50.848;3.272;2023-04-24T05:33:48;9.70;99.90
21035;DHT22;10676;50.848;3.272;2023-04-24T05:36:14;9.80;99.90
21035;DHT22;10676;50.848;3.272;2023-04-24T05:38:40;9.90;99.90
21035;DHT22;10676;50.848;3.272;2023-04-24T05:41:06;9.90;99.90
21035;DHT22;10676;50.848;3.272;2023-04-24T05:43:32;10.00;99.90
21035;DHT22;10676;50.848;3.272;2023-04-24T05:45:57;10.10;99.90
21035;DHT22;10676;50.848;3.272;2023-04-24T05:48:23;10.10;99.90
21035;DHT22;10676;50.848;3.272;2023-04-24T05:50:49;10.30;99.90
21035;DHT22;10676;50.848;3.272;2023-04-24T05:53:14;10.50;99.90
21035;DHT22;10676;50.848;3.272;2023-04-24T05:55:41;10.80;99.90
21035;DHT22;10676;50.848;3.272;2023-04-24T05:58:06;11.10;99.90
21035;DHT22;10676;50.848;3.272;2023-04-24T06:00:32;11.50;99.90
21035;DHT22;10676;50.848;3.272;2023-04-24T06:03:00;11.80;99.90
21035;DHT22;10676;50.848;3.272;2023-04-24T06:05:25;11.90;99.90
21035;DHT22;10676;50.848;3.272;2023-04-24T06:07:51;11.80;99.90
21035;DHT22;10676;50.848;3.272;2023-04-24T06:10:17;11.70;99.90
21035;DHT22;10676;50.848;3.272;2023-04-24T06:12:43;11.50;99.90
21035;DHT22;10676;50.848;3.272;2023-04-24T06:15:09;11.40;99.90
21035;DHT22;10676;50.848;3.272;2023-04-24T06:17:34;11.30;99.90
21035;DHT22;10676;50.848;3.272;2023-04-24T06:20:00;11.30;99.90
21035;DHT22;10676;50.848;3.272;2023-04-24T06:22:26;11.50;99.90
21035;DHT22;10676;50.848;3.272;2023-04-24T06:24:51;11.70;99.90
21035;DHT22;10676;50.848;3.272;2023-04-24T06:27:17;11.80;99.90
21035;DHT22;10676;50.848;3.272;2023-04-24T06:29:43;11.90;99.90
21035;DHT22;10676;50.848;3.272;2023-04-24T06:32:09;12.00;99.90
21035;DHT22;10676;50.848;3.272;2023-04-24T06:34:34;12.50;99.90
21035;DHT22;10676;50.848;3.272;2023-04-24T06:37:01;12.70;99.90
21035;DHT22;10676;50.848;3.272;2023-04-24T06:39:26;12.70;99.90
21035;DHT22;10676;50.848;3.272;2023-04-24T06:41:52;12.90;99.90
21035;DHT22;10676;50.848;3.272;2023-04-24T06:44:18;13.50;99.90
21035;DHT22;10676;50.848;3.272;2023-04-24T06:46:43;14.00;99.90
21035;DHT22;10676;50.848;3.272;2023-04-24T06:49:09;14.10;99.90
21035;DHT22;10676;50.848;3.272;2023-04-24T06:51:35;13.90;99.90
21035;DHT22;10676;50.848;3.272;2023-04-24T06:54:00;13.60;99.90
21035;DHT22;10676;50.848;3.272;2023-04-24T06:56:27;13.30;99.90
21035;DHT22;10676;50.848;3.272;2023-04-24T06:58:54;13.00;99.90
21035;DHT22;10676;50.848;3.272;2023-04-24T07:01:20;12.80;99.90
21035;DHT22;10676;50.848;3.272;2023-04-24T07:03:46;12.70;99.90
21035;DHT22;10676;50.848;3.272;2023-04-24T07:06:11;12.50;99.90
21035;DHT22;10676;50.848;3.272;2023-04-24T07:08:38;12.50;99.90
21035;DHT22;10676;50.848;3.272;2023-04-24T07:11:04;12.50;99.90
21035;DHT22;10676;50.848;3.272;2023-04-24T07:13:30;12.40;99.90
21035;DHT22;10676;50.848;3.272;2023-04-24T07:15:55;12.30;99.90
21035;DHT22;10676;50.848;3.272;2023-04-24T07:18:22;12.30;99.90
21035;DHT22;10676;50.848;3.272;2023-04-24T07:20:47;12.20;99.90
21035;DHT22;10676;50.848;3.272;2023-04-24T07:23:15;12.10;99.90
21035;DHT22;10676;50.848;3.272;2023-04-24T07:25:41;12.00;99.90
21035;DHT22;10676;50.848;3.272;2023-04-24T07:28:07;12.00;99.90
21035;DHT22;10676;50.848;3.272;2023-04-24T07:30:32;12.10;99.90
21035;DHT22;10676;50.848;3.272;2023-04-24T07:32:59;12.30;99.90
21035;DHT22;10676;50.848;3.272;2023-04-24T07:35:26;12.60;99.90
21035;DHT22;10676;50.848;3.272;2023-04-24T07:37:53;12.70;99.90
21035;DHT22;10676;50.848;3.272;2023-04-24T07:40:19;12.80;99.90
21035;DHT22;10676;50.848;3.272;2023-04-24T07:42:44;12.90;99.90
21035;DHT22;10676;50.848;3.272;2023-04-24T07:45:10;12.90;99.90
21035;DHT22;10676;50.848;3.272;2023-04-24T07:47:36;13.00;99.90
21035;DHT22;10676;50.848;3.272;2023-04-24T07:50:03;12.90;99.90
21035;DHT22;10676;50.848;3.272;2023-04-24T07:52:29;12.90;99.90
21035;DHT22;10676;50.848;3.272;2023-04-24T07:54:55;13.00;99.90
21035;DHT22;10676;50.848;3.272;2023-04-24T07:57:25;12.90;99.90
21035;DHT22;10676;50.848;3.272;2023-04-24T07:59:51;13.10;99.90
21035;DHT22;10676;50.848;3.272;2023-04-24T08:02:17;13.90;99.90
21035;DHT22;10676;50.848;3.272;2023-04-24T08:04:42;15.10;99.90
21035;DHT22;10676;50.848;3.272;2023-04-24T08:07:08;16.20;99.90
21035;DHT22;10676;50.848;3.272;2023-04-24T08:09:34;16.70;99.90
21035;DHT22;10676;50.848;3.272;2023-04-24T08:12:00;16.70;99.90
21035;DHT22;10676;50.848;3.272;2023-04-24T08:14:26;16.50;99.90
21035;DHT22;10676;50.848;3.272;2023-04-24T08:16:54;16.10;99.90
21035;DHT22;10676;50.848;3.272;2023-04-24T08:19:21;15.70;99.90
21035;DHT22;10676;50.848;3.272;2023-04-24T08:21:47;15.20;99.90
21035;DHT22;10676;50.848;3.272;2023-04-24T08:24:12;14.80;99.90
21035;DHT22;10676;50.848;3.272;2023-04-24T08:26:38;14.30;99.90
21035;DHT22;10676;50.848;3.272;2023-04-24T08:29:04;13.80;99.90
21035;DHT22;10676;50.848;3.272;2023-04-24T08:31:31;13.50;99.90
21035;DHT22;10676;50.848;3.272;2023-04-24T08:33:57;13.40;99.90
21035;DHT22;10676;50.848;3.272;2023-04-24T08:36:22;13.30;99.90
21035;DHT22;10676;50.848;3.272;2023-04-24T08:38:48;13.30;99.90
21035;DHT22;10676;50.848;3.272;2023-04-24T08:41:14;13.20;99.90
21035;DHT22;10676;50.848;3.272;2023-04-24T08:43:41;13.20;99.90
21035;DHT22;10676;50.848;3.272;2023-04-24T08:46:07;13.20;99.90
21035;DHT22;10676;50.848;3.272;2023-04-24T08:48:34;13.20;99.90
21035;DHT22;10676;50.848;3.272;2023-04-24T08:51:00;13.10;99.90
21035;DHT22;10676;50.848;3.272;2023-04-24T08:53:27;13.10;99.90
21035;DHT22;10676;50.848;3.272;2023-04-24T08:55:55;13.20;99.90
21035;DHT22;10676;50.848;3.272;2023-04-24T08:58:22;13.40;99.90
21035;DHT22;10676;50.848;3.272;2023-04-24T09:00:48;13.50;99.90
21035;DHT22;10676;50.848;3.272;2023-04-24T09:03:15;13.70;99.90
21035;DHT22;10676;50.848;3.272;2023-04-24T09:05:43;13.80;99.90
21035;DHT22;10676;50.848;3.272;2023-04-24T09:08:16;13.70;99.90
21035;DHT22;10676;50.848;3.272;2023-04-24T09:10:47;13.80;99.90
21035;DHT22;10676;50.848;3.272;2023-04-24T09:13:13;13.90;99.90
21035;DHT22;10676;50.848;3.272;2023-04-24T09:15:40;14.20;99.90
21035;DHT22;10676;50.848;3.272;2023-04-24T09:18:06;14.40;99.90
21035;DHT22;10676;50.848;3.272;2023-04-24T09:20:32;14.80;99.90
21035;DHT22;10676;50.848;3.272;2023-04-24T09:22:58;15.20;99.90
21035;DHT22;10676;50.848;3.272;2023-04-24T09:25:34;15.30;99.90
21035;DHT22;10676;50.848;3.272;2023-04-24T09:28:04;15.40;99.90
21035;DHT22;10676;50.848;3.272;2023-04-24T09:30:32;15.20;99.90
21035;DHT22;10676;50.848;3.272;2023-04-24T09:33:14;15.00;99.90
21035;DHT22;10676;50.848;3.272;2023-04-24T09:35:50;14.90;99.90
21035;DHT22;10676;50.848;3.272;2023-04-24T09:38:16;14.80;99.90
21035;DHT22;10676;50.848;3.272;2023-04-24T09:40:42;14.70;99.90
21035;DHT22;10676;50.848;3.272;2023-04-24T09:43:10;14.70;99.90
21035;DHT22;10676;50.848;3.272;2023-04-24T09:45:37;14.70;99.90
21035;DHT22;10676;50.848;3.272;2023-04-24T09:48:04;14.90;99.90
21035;DHT22;10676;50.848;3.272;2023-04-24T09:50:32;15.10;99.90
21035;DHT22;10676;50.848;3.272;2023-04-24T09:53:02;15.20;99.90
21035;DHT22;10676;50.848;3.272;2023-04-24T09:55:28;15.30;99.90
21035;DHT22;10676;50.848;3.272;2023-04-24T09:58:01;15.40;99.90
21035;DHT22;10676;50.848;3.272;2023-04-24T10:00:28;15.40;99.90
21035;DHT22;10676;50.848;3.272;2023-04-24T10:05:32;15.50;99.90
21035;DHT22;10676;50.848;3.272;2023-04-24T10:08:05;15.50;99.90
21035;DHT22;10676;50.848;3.272;2023-04-24T10:10:32;15.60;99.90
21035;DHT22;10676;50.848;3.272;2023-04-24T10:12:58;15.70;99.90
21035;DHT22;10676;50.848;3.272;2023-04-24T10:15:24;16.00;99.90
21035;DHT22;10676;50.848;3.272;2023-04-24T10:17:51;16.30;99.90
21035;DHT22;10676;50.848;3.272;2023-04-24T10:20:21;16.60;99.90
21035;DHT22;10676;50.848;3.272;2023-04-24T10:22:52;16.80;99.90
21035;DHT22;10676;50.848;3.272;2023-04-24T10:25:25;17.00;99.90
21035;DHT22;10676;50.848;3.272;2023-04-24T10:27:52;17.20;99.90
21035;DHT22;10676;50.848;3.272;2023-04-24T10:30:19;17.70;99.90
21035;DHT22;10676;50.848;3.272;2023-04-24T10:32:45;18.30;99.90
21035;DHT22;10676;50.848;3.272;2023-04-24T10:35:15;18.90;99.90
21035;DHT22;10676;50.848;3.272;2023-04-24T10:37:48;19.20;99.90
21035;DHT22;10676;50.848;3.272;2023-04-24T10:40:24;19.70;99.90
21035;DHT22;10676;50.848;3.272;2023-04-24T10:42:51;19.60;99.90
21035;DHT22;10676;50.848;3.272;2023-04-24T10:45:20;19.30;99.90
21035;DHT22;10676;50.848;3.272;2023-04-24T10:48:03;18.90;99.90
21035;DHT22;10676;50.848;3.272;2023-04-24T10:50:41;18.40;99.90
21035;DHT22;10676;50.848;3.272;2023-04-24T10:53:11;18.30;99.90
21035;DHT22;10676;50.848;3.272;2023-04-24T10:55:51;18.90;99.90
21035;DHT22;10676;50.848;3.272;2023-04-24T10:58:25;19.80;99.90
21035;DHT22;10676;50.848;3.272;2023-04-24T11:01:00;20.50;99.90
21035;DHT22;10676;50.848;3.272;2023-04-24T11:03:27;21.20;99.90
21035;DHT22;10676;50.848;3.272;2023-04-24T11:05:56;21.80;99.90
21035;DHT22;10676;50.848;3.272;2023-04-24T11:08:45;22.40;99.90
21035;DHT22;10676;50.848;3.272;2023-04-24T11:11:16;23.00;98.70
21035;DHT22;10676;50.848;3.272;2023-04-24T11:16:20;23.50;96.90
21035;DHT22;10676;50.848;3.272;2023-04-24T11:18:59;23.50;94.40
21035;DHT22;10676;50.848;3.272;2023-04-24T11:21:27;23.10;95.00
21035;DHT22;10676;50.848;3.272;2023-04-24T11:23:56;22.60;94.50
21035;DHT22;10676;50.848;3.272;2023-04-24T11:26:22;22.10;94.80
21035;DHT22;10676;50.848;3.272;2023-04-24T11:29:06;21.60;95.40
21035;DHT22;10676;50.848;3.272;2023-04-24T11:31:40;21.30;95.80
21035;DHT22;10676;50.848;3.272;2023-04-24T11:34:14;21.20;95.50
21035;DHT22;10676;50.848;3.272;2023-04-24T11:36:44;20.90;95.90
21035;DHT22;10676;50.848;3.272;2023-04-24T11:39:10;20.70;95.50
21035;DHT22;10676;50.848;3.272;2023-04-24T11:41:37;20.30;97.00
21035;DHT22;10676;50.848;3.272;2023-04-24T11:44:06;20.20;96.70
21035;DHT22;10676;50.848;3.272;2023-04-24T11:46:32;20.50;96.40
21035;DHT22;10676;50.848;3.272;2023-04-24T11:48:58;20.80;96.60
21035;DHT22;10676;50.848;3.272;2023-04-24T11:51:26;21.40;96.10
21035;DHT22;10676;50.848;3.272;2023-04-24T11:53:56;21.80;94.40
21035;DHT22;10676;50.848;3.272;2023-04-24T11:56:23;21.90;93.80
21035;DHT22;10676;50.848;3.272;2023-04-24T11:58:51;21.70;93.00
21035;DHT22;10676;50.848;3.272;2023-04-24T12:01:17;21.50;93.50
21035;DHT22;10676;50.848;3.272;2023-04-24T12:03:47;21.40;93.50
21035;DHT22;10676;50.848;3.272;2023-04-24T12:06:13;21.20;94.60
21035;DHT22;10676;50.848;3.272;2023-04-24T12:08:39;21.20;94.10
21035;DHT22;10676;50.848;3.272;2023-04-24T12:11:06;21.40;93.10
21035;DHT22;10676;50.848;3.272;2023-04-24T12:13:35;21.50;93.00
21035;DHT22;10676;50.848;3.272;2023-04-24T12:16:04;21.40;92.10
21035;DHT22;10676;50.848;3.272;2023-04-24T12:18:31;21.20;92.60
21035;DHT22;10676;50.848;3.272;2023-04-24T12:21:21;21.00;92.80
21035;DHT22;10676;50.848;3.272;2023-04-24T12:23:48;21.00;93.70
21035;DHT22;10676;50.848;3.272;2023-04-24T12:26:18;21.30;93.60
21035;DHT22;10676;50.848;3.272;2023-04-24T12:28:47;21.50;92.20
21035;DHT22;10676;50.848;3.272;2023-04-24T12:31:15;21.30;91.90
21035;DHT22;10676;50.848;3.272;2023-04-24T12:33:41;21.10;91.50
21035;DHT22;10676;50.848;3.272;2023-04-24T12:36:09;20.70;92.40
21035;DHT22;10676;50.848;3.272;2023-04-24T12:38:35;20.50;93.70
21035;DHT22;10676;50.848;3.272;2023-04-24T12:41:07;20.60;93.20
21035;DHT22;10676;50.848;3.272;2023-04-24T12:43:34;20.60;92.30
21035;DHT22;10676;50.848;3.272;2023-04-24T12:46:00;20.30;92.40
21035;DHT22;10676;50.848;3.272;2023-04-24T12:48:27;20.00;92.20
21035;DHT22;10676;50.848;3.272;2023-04-24T12:50:52;19.70;93.00
21035;DHT22;10676;50.848;3.272;2023-04-24T12:53:18;19.50;93.70
21035;DHT22;10676;50.848;3.272;2023-04-24T12:55:44;19.30;93.50
21035;DHT22;10676;50.848;3.272;2023-04-24T12:58:10;19.30;94.30
21035;DHT22;10676;50.848;3.272;2023-04-24T13:00:36;19.30;93.50
21035;DHT22;10676;50.848;3.272;2023-04-24T13:03:02;19.20;93.50
21035;DHT22;10676;50.848;3.272;2023-04-24T13:05:28;19.00;94.10
21035;DHT22;10676;50.848;3.272;2023-04-24T13:07:56;18.90;94.60
21035;DHT22;10676;50.848;3.272;2023-04-24T13:10:22;18.80;94.40
21035;DHT22;10676;50.848;3.272;2023-04-24T13:12:47;18.60;94.30
21035;DHT22;10676;50.848;3.272;2023-04-24T13:15:13;18.40;95.10
21035;DHT22;10676;50.848;3.272;2023-04-24T13:17:39;18.10;95.10
21035;DHT22;10676;50.848;3.272;2023-04-24T13:20:05;17.90;95.70
21035;DHT22;10676;50.848;3.272;2023-04-24T13:22:31;18.00;95.70
21035;DHT22;10676;50.848;3.272;2023-04-24T13:24:57;18.20;95.70
21035;DHT22;10676;50.848;3.272;2023-04-24T13:27:22;18.30;94.70
21035;DHT22;10676;50.848;3.272;2023-04-24T13:29:48;18.40;94.50
21035;DHT22;10676;50.848;3.272;2023-04-24T13:32:14;18.30;94.90
21035;DHT22;10676;50.848;3.272;2023-04-24T13:34:40;18.10;95.80
21035;DHT22;10676;50.848;3.272;2023-04-24T13:37:06;18.00;95.80
21035;DHT22;10676;50.848;3.272;2023-04-24T13:39:33;17.90;96.30
21035;DHT22;10676;50.848;3.272;2023-04-24T13:41:58;17.90;96.60
21035;DHT22;10676;50.848;3.272;2023-04-24T13:44:24;17.90;96.70
21035;DHT22;10676;50.848;3.272;2023-04-24T13:46:53;17.90;96.40
21035;DHT22;10676;50.848;3.272;2023-04-24T13:49:20;18.00;96.20
21035;DHT22;10676;50.848;3.272;2023-04-24T13:51:46;17.90;95.90
21035;DHT22;10676;50.848;3.272;2023-04-24T13:54:12;18.00;95.80
21035;DHT22;10676;50.848;3.272;2023-04-24T13:56:39;17.90;95.20
21035;DHT22;10676;50.848;3.272;2023-04-24T13:59:05;17.80;95.60
21035;DHT22;10676;50.848;3.272;2023-04-24T14:01:31;17.80;95.30
21035;DHT22;10676;50.848;3.272;2023-04-24T14:03:57;18.10;95.00
21035;DHT22;10676;50.848;3.272;2023-04-24T14:06:23;18.30;95.20
21035;DHT22;10676;50.848;3.272;2023-04-24T14:08:49;18.50;94.40
21035;DHT22;10676;50.848;3.272;2023-04-24T14:11:16;18.60;94.30
21035;DHT22;10676;50.848;3.272;2023-04-24T14:13:42;18.70;94.20
21035;DHT22;10676;50.848;3.272;2023-04-24T14:16:09;18.60;94.40
21035;DHT22;10676;50.848;3.272;2023-04-24T14:18:35;18.50;94.50
21035;DHT22;10676;50.848;3.272;2023-04-24T14:21:02;18.40;94.10
21035;DHT22;10676;50.848;3.272;2023-04-24T14:23:28;18.20;94.40
21035;DHT22;10676;50.848;3.272;2023-04-24T14:25:54;17.90;94.80
21035;DHT22;10676;50.848;3.272;2023-04-24T14:28:20;17.60;95.10
21035;DHT22;10676;50.848;3.272;2023-04-24T14:30:46;17.20;96.00
21035;DHT22;10676;50.848;3.272;2023-04-24T14:33:12;17.00;96.40
21035;DHT22;10676;50.848;3.272;2023-04-24T14:35:39;16.80;96.80
21035;DHT22;10676;50.848;3.272;2023-04-24T14:38:05;16.60;96.70
21035;DHT22;10676;50.848;3.272;2023-04-24T14:40:31;16.40;97.20
21035;DHT22;10676;50.848;3.272;2023-04-24T14:42:58;16.30;97.40
21035;DHT22;10676;50.848;3.272;2023-04-24T14:45:24;16.10;97.70
21035;DHT22;10676;50.848;3.272;2023-04-24T14:47:50;15.80;97.90
21035;DHT22;10676;50.848;3.272;2023-04-24T14:50:16;15.70;98.30
21035;DHT22;10676;50.848;3.272;2023-04-24T14:52:42;15.50;98.60
21035;DHT22;10676;50.848;3.272;2023-04-24T14:55:08;15.40;98.80
21035;DHT22;10676;50.848;3.272;2023-04-24T14:57:34;15.20;98.90
21035;DHT22;10676;50.848;3.272;2023-04-24T15:00:01;15.20;99.20
21035;DHT22;10676;50.848;3.272;2023-04-24T15:02:28;15.00;99.20
21035;DHT22;10676;50.848;3.272;2023-04-24T15:04:54;15.00;99.70
21035;DHT22;10676;50.848;3.272;2023-04-24T15:07:20;14.80;99.80
21035;DHT22;10676;50.848;3.272;2023-04-24T15:09:46;14.70;99.90
21035;DHT22;10676;50.848;3.272;2023-04-24T15:12:12;14.80;99.90
21035;DHT22;10676;50.848;3.272;2023-04-24T15:14:38;14.80;99.80
21035;DHT22;10676;50.848;3.272;2023-04-24T15:17:04;14.70;99.60
21035;DHT22;10676;50.848;3.272;2023-04-24T15:19:31;14.70;99.60
21035;DHT22;10676;50.848;3.272;2023-04-24T15:21:57;14.70;99.90
21035;DHT22;10676;50.848;3.272;2023-04-24T15:24:23;15.00;99.90
21035;DHT22;10676;50.848;3.272;2023-04-24T15:26:49;15.50;99.70
21035;DHT22;10676;50.848;3.272;2023-04-24T15:29:15;16.20;98.50
21035;DHT22;10676;50.848;3.272;2023-04-24T15:31:40;16.80;97.60
21035;DHT22;10676;50.848;3.272;2023-04-24T15:34:06;17.20;96.60
21035;DHT22;10676;50.848;3.272;2023-04-24T15:36:32;17.60;96.00